Time;durP1;ratioP1;P1;durP2;ratioP2;P2;SDS_P1;SDS_P2;PMS_P1;PMS_P2;Temp;Humidity;BMP_temperature;BMP_pressure;BME280_temperature;BME280_humidity;BME280_pressure;Samples;Min_cycle;Max_cycle;Signal;HPM_P1;HPM_P2
2021/09/14 00:02:13;;;;;;;9.20;8.30;;;16.10;99.90;;;;;;5113976;28;20225;-43
2021/09/14 00:04:39;;;;;;;8.10;7.40;;;16.10;99.90;;;;;;5123874;28;20286;-39
2021/09/14 00:07:05;;;;;;;7.70;6.97;;;16.10;99.90;;;;;;5126712;28;20716;-40
2021/09/14 00:09:30;;;;;;;8.00;7.27;;;16.00;99.90;;;;;;5125652;28;20215;-39
2021/09/14 00:11:56;;;;;;;7.90;7.20;;;16.00;99.90;;;;;;5126733;28;20273;-39
2021/09/14 00:14:22;;;;;;;7.97;7.23;;;16.00;99.90;;;;;;5122201;28;20457;-39
2021/09/14 00:16:48;;;;;;;8.17;7.43;;;16.00;99.90;;;;;;5106700;28;20607;-38
2021/09/14 00:19:15;;;;;;;8.10;7.40;;;15.90;99.90;;;;;;5120075;28;20187;-42
2021/09/14 00:21:41;;;;;;;8.07;7.37;;;16.00;99.90;;;;;;5126422;28;20187;-39
2021/09/14 00:24:06;;;;;;;8.37;7.57;;;16.00;99.90;;;;;;5125704;28;20432;-39
2021/09/14 00:26:32;;;;;;;7.90;7.20;;;16.00;99.90;;;;;;5126177;28;20202;-38
2021/09/14 00:28:58;;;;;;;8.00;7.20;;;15.90;99.90;;;;;;5125672;28;20202;-38
2021/09/14 00:31:25;;;;;;;7.80;7.10;;;15.90;99.90;;;;;;5124445;28;20770;-40
2021/09/14 00:33:51;;;;;;;8.40;6.87;;;15.80;99.90;;;;;;5124788;28;20532;-41
2021/09/14 00:36:16;;;;;;;7.40;6.80;;;15.80;99.90;;;;;;5120997;28;20591;-39
2021/09/14 00:38:42;;;;;;;8.40;7.70;;;15.70;99.90;;;;;;5126162;28;20297;-39
2021/09/14 00:41:08;;;;;;;8.30;7.50;;;15.70;99.90;;;;;;5125094;28;20197;-39
2021/09/14 00:43:34;;;;;;;8.80;8.00;;;15.60;99.90;;;;;;5126238;28;20293;-39
2021/09/14 00:45:59;;;;;;;8.53;7.23;;;15.50;99.90;;;;;;5126134;28;20527;-40
2021/09/14 00:48:25;;;;;;;9.90;8.90;;;15.60;99.90;;;;;;5115098;28;20517;-39
2021/09/14 00:50:51;;;;;;;11.40;8.90;;;15.50;99.90;;;;;;5125210;28;20183;-38
2021/09/14 00:53:19;;;;;;;9.97;9.10;;;15.50;99.90;;;;;;5125861;28;20211;-38
2021/09/14 00:55:45;;;;;;;10.07;9.23;;;15.50;99.90;;;;;;5125783;28;20178;-38
2021/09/14 00:58:11;;;;;;;11.10;9.23;;;15.50;99.90;;;;;;5126385;27;20428;-39
2021/09/14 01:00:37;;;;;;;9.90;9.00;;;15.50;99.90;;;;;;5127305;27;20919;-38
2021/09/14 01:03:04;;;;;;;10.93;9.93;;;15.40;99.90;;;;;;5120258;27;20179;-38
2021/09/14 01:05:30;;;;;;;10.67;9.57;;;15.60;99.90;;;;;;5124987;27;20187;-40
2021/09/14 01:07:55;;;;;;;10.27;9.27;;;15.50;99.90;;;;;;5129474;27;20452;-38
2021/09/14 01:10:22;;;;;;;12.83;9.70;;;15.60;99.90;;;;;;5128917;27;20421;-38
2021/09/14 01:12:48;;;;;;;10.70;9.70;;;15.60;99.90;;;;;;5129592;27;20309;-39
2021/09/14 01:15:14;;;;;;;10.47;9.60;;;15.60;99.90;;;;;;5099270;28;20825;-39
2021/09/14 01:17:40;;;;;;;10.57;9.67;;;15.60;99.90;;;;;;5109227;27;20434;-38
2021/09/14 01:20:07;;;;;;;10.87;9.80;;;15.60;99.90;;;;;;5121065;27;20791;-38
2021/09/14 01:22:33;;;;;;;12.30;9.10;;;15.60;99.90;;;;;;5128767;27;20179;-38
2021/09/14 01:25:00;;;;;;;10.50;9.50;;;15.60;99.90;;;;;;5129441;27;20473;-38
2021/09/14 01:27:26;;;;;;;10.17;9.10;;;15.60;99.90;;;;;;5129330;27;20515;-38
2021/09/14 01:32:36;;;;;;;10.67;9.40;;;15.60;99.90;;;;;;5127856;27;20509;-39
2021/09/14 01:35:13;;;;;;;10.80;9.80;;;15.70;99.90;;;;;;5123663;27;20404;-39
2021/09/14 01:37:39;;;;;;;11.30;10.20;;;15.60;99.90;;;;;;5129200;27;20592;-40
2021/09/14 01:40:05;;;;;;;9.80;8.97;;;15.50;99.90;;;;;;5128573;27;20420;-40
2021/09/14 01:42:31;;;;;;;10.33;8.77;;;15.40;99.90;;;;;;5128938;27;20193;-38
2021/09/14 01:44:57;;;;;;;9.90;8.33;;;15.30;99.90;;;;;;5110455;27;20421;-40
2021/09/14 01:47:23;;;;;;;9.87;8.57;;;15.20;99.90;;;;;;5123290;27;20183;-40
2021/09/14 01:49:48;;;;;;;8.90;8.10;;;15.20;99.90;;;;;;5125985;27;20183;-39
2021/09/14 01:52:14;;;;;;;9.20;8.40;;;15.10;99.90;;;;;;5128826;27;20187;-39
2021/09/14 01:54:41;;;;;;;9.37;8.47;;;15.00;99.90;;;;;;5128503;27;20219;-39
2021/09/14 01:57:07;;;;;;;9.73;8.73;;;15.00;99.90;;;;;;5128418;27;20175;-39
2021/09/14 01:59:34;;;;;;;9.67;8.87;;;14.90;99.90;;;;;;5128038;27;20420;-40
2021/09/14 02:02:13;;;;;;;9.03;8.20;;;14.90;99.90;;;;;;5127081;27;20791;-39
2021/09/14 02:38:20;;;;;;;9.43;8.53;;;14.60;99.90;;;;;;5117340;27;20464;-38
2021/09/14 02:40:16;;;;;;;9.67;8.77;;;14.40;99.90;;;;;;5126837;27;20424;-38
2021/09/14 02:58:49;;;;;;;9.40;8.60;;;14.30;99.90;;;;;;5127637;27;20942;-38
2021/09/14 03:01:15;;;;;;;9.60;8.70;;;14.30;99.90;;;;;;5125103;27;20432;-38
2021/09/14 03:03:45;;;;;;;9.70;8.80;;;14.30;99.90;;;;;;5117984;27;20461;-39
2021/09/14 03:06:11;;;;;;;10.73;9.73;;;14.30;99.90;;;;;;5127138;27;20218;-38
2021/09/14 03:08:40;;;;;;;11.03;8.80;;;14.40;99.90;;;;;;5127234;27;20838;-39
2021/09/14 03:11:11;;;;;;;9.87;8.83;;;14.30;99.90;;;;;;5125930;27;20439;-38
2021/09/14 03:13:37;;;;;;;9.67;8.77;;;14.30;99.90;;;;;;5127408;27;20464;-39
2021/09/14 03:16:05;;;;;;;9.67;8.80;;;14.40;99.90;;;;;;5108815;27;20780;-40
2021/09/14 03:18:30;;;;;;;8.80;8.00;;;14.30;99.90;;;;;;5106210;27;20493;-38
2021/09/14 03:20:56;;;;;;;10.00;9.20;;;14.30;99.90;;;;;;5124899;27;20508;-39
2021/09/14 03:23:22;;;;;;;9.83;8.83;;;14.30;99.90;;;;;;5115162;27;20305;-38
2021/09/14 03:25:48;;;;;;;9.37;8.57;;;14.30;99.90;;;;;;5106412;28;20202;-38
2021/09/14 03:28:13;;;;;;;9.57;8.77;;;14.20;99.90;;;;;;5124680;27;21026;-39
2021/09/14 03:30:39;;;;;;;9.03;8.13;;;14.10;99.90;;;;;;5126322;27;20653;-41
2021/09/14 03:33:05;;;;;;;9.67;8.87;;;14.10;99.90;;;;;;5122722;27;20495;-39
2021/09/14 03:35:31;;;;;;;10.13;9.23;;;14.20;99.90;;;;;;5117184;27;20190;-38
2021/09/14 03:37:56;;;;;;;9.70;8.80;;;14.20;99.90;;;;;;5126417;27;20237;-39
2021/09/14 03:40:22;;;;;;;10.33;9.20;;;14.20;99.90;;;;;;5125795;27;20439;-40
2021/09/14 03:42:48;;;;;;;10.20;9.20;;;14.20;99.90;;;;;;5126923;27;20218;-38
2021/09/14 03:45:14;;;;;;;10.70;9.70;;;14.20;99.90;;;;;;5126411;27;20201;-40
2021/09/14 03:47:40;;;;;;;11.03;9.93;;;14.30;99.90;;;;;;5126710;27;20191;-38
2021/09/14 03:50:06;;;;;;;10.87;8.70;;;14.30;99.90;;;;;;5114039;27;20659;-39
2021/09/14 03:52:32;;;;;;;10.50;9.60;;;14.20;99.90;;;;;;5126288;27;20206;-38
2021/09/14 03:54:58;;;;;;;9.43;8.57;;;14.20;99.90;;;;;;5107769;28;20432;-39
2021/09/14 03:57:23;;;;;;;9.53;8.63;;;14.20;99.90;;;;;;5114932;28;21025;-38
2021/09/14 03:59:49;;;;;;;10.10;9.20;;;14.10;99.90;;;;;;5126118;28;20235;-39
2021/09/14 04:02:33;;;;;;;10.70;9.70;;;14.10;99.90;;;;;;5125507;28;20187;-38
2021/09/14 04:10:10;;;;;;;10.07;9.07;;;14.00;99.90;;;;;;5125864;28;20206;-39
2021/09/14 04:12:35;;;;;;;10.40;9.30;;;13.90;99.90;;;;;;5126325;28;20469;-41
2021/09/14 04:15:01;;;;;;;11.00;9.90;;;13.90;99.90;;;;;;5116481;28;20433;-42
2021/09/14 04:17:27;;;;;;;12.10;9.57;;;14.00;99.90;;;;;;5106065;28;20190;-39
2021/09/14 04:19:53;;;;;;;10.90;9.80;;;14.00;99.90;;;;;;5092623;28;20434;-39
2021/09/14 04:22:18;;;;;;;9.10;8.03;;;14.10;99.90;;;;;;5123675;28;20188;-39
2021/09/14 04:24:44;;;;;;;12.50;9.47;;;14.10;99.90;;;;;;5126254;28;20194;-38
2021/09/14 04:27:10;;;;;;;9.60;8.67;;;14.10;99.90;;;;;;5126791;28;20538;-38
2021/09/14 04:29:36;;;;;;;10.83;9.03;;;14.10;99.90;;;;;;5125606;28;20787;-38
2021/09/14 04:32:02;;;;;;;11.27;10.27;;;13.90;99.90;;;;;;5126235;28;20425;-38
2021/09/14 04:34:28;;;;;;;10.50;9.47;;;13.90;99.90;;;;;;5116843;27;20577;-38
2021/09/14 04:36:54;;;;;;;10.40;9.40;;;13.90;99.90;;;;;;5129391;27;20572;-38
2021/09/14 04:39:20;;;;;;;9.83;8.93;;;13.80;99.90;;;;;;5129930;27;20657;-39
2021/09/14 04:41:46;;;;;;;10.40;9.37;;;13.80;99.90;;;;;;5129796;27;20179;-41
2021/09/14 04:44:12;;;;;;;11.40;9.80;;;13.90;99.90;;;;;;5130179;27;20420;-38
2021/09/14 04:46:38;;;;;;;11.70;10.17;;;13.90;99.90;;;;;;5125764;27;20451;-38
2021/09/14 04:49:04;;;;;;;11.27;10.27;;;13.90;99.90;;;;;;5121532;27;20283;-39
2021/09/14 04:51:30;;;;;;;11.30;10.27;;;13.90;99.90;;;;;;5121820;27;20191;-38
2021/09/14 04:53:56;;;;;;;11.97;10.77;;;13.90;99.90;;;;;;5125278;27;20456;-41
2021/09/14 04:56:21;;;;;;;11.90;10.10;;;13.90;99.90;;;;;;5129786;27;20435;-38
2021/09/14 04:58:49;;;;;;;11.40;9.63;;;13.70;99.90;;;;;;5127735;27;20199;-38
2021/09/14 05:01:16;;;;;;;12.93;11.00;;;13.80;99.90;;;;;;5129038;27;20179;-39
2021/09/14 05:03:42;;;;;;;11.13;10.03;;;13.80;99.90;;;;;;5126433;27;20532;-38
2021/09/14 05:06:08;;;;;;;12.57;11.27;;;13.80;99.90;;;;;;5123037;27;20507;-39
2021/09/14 05:08:34;;;;;;;11.40;9.90;;;13.90;99.90;;;;;;5129573;27;20436;-38
2021/09/14 05:11:01;;;;;;;11.30;10.20;;;13.80;99.90;;;;;;5128804;27;20195;-39
2021/09/14 05:13:27;;;;;;;13.93;12.10;;;13.80;99.90;;;;;;5129084;27;20485;-38
2021/09/14 05:15:53;;;;;;;11.70;10.10;;;13.90;99.90;;;;;;5112894;27;20425;-38
2021/09/14 05:18:18;;;;;;;11.33;9.90;;;13.80;99.90;;;;;;5109054;28;20831;-38
2021/09/14 05:20:46;;;;;;;11.60;10.37;;;13.70;99.90;;;;;;5100767;27;20444;-38
2021/09/14 05:23:16;;;;;;;12.90;11.00;;;13.70;99.90;;;;;;5124108;27;20240;-38
2021/09/14 05:25:44;;;;;;;11.57;10.47;;;13.70;99.90;;;;;;5129094;27;20433;-38
2021/09/14 05:28:12;;;;;;;11.43;10.23;;;13.70;99.90;;;;;;5128489;27;20424;-38
2021/09/14 05:30:38;;;;;;;11.80;10.67;;;13.60;99.90;;;;;;5128479;27;20540;-38
2021/09/14 05:33:04;;;;;;;13.40;12.10;;;13.60;99.90;;;;;;5129247;27;20525;-38
2021/09/14 05:35:41;;;;;;;13.10;11.77;;;13.70;99.90;;;;;;5117214;27;20197;-38
2021/09/14 05:38:07;;;;;;;12.90;11.50;;;13.80;99.90;;;;;;5121505;27;20503;-38
2021/09/14 05:40:34;;;;;;;13.10;11.80;;;13.80;99.90;;;;;;5108694;27;20549;-38
2021/09/14 05:42:59;;;;;;;12.63;11.33;;;13.90;99.90;;;;;;5115874;27;20243;-38
2021/09/14 05:45:25;;;;;;;13.83;12.33;;;13.90;99.90;;;;;;5128720;27;20825;-38
2021/09/14 05:47:51;;;;;;;14.17;11.87;;;14.00;99.90;;;;;;5128399;27;20557;-38
2021/09/14 05:50:16;;;;;;;14.50;12.33;;;14.10;99.90;;;;;;5109528;27;20571;-39
2021/09/14 05:52:42;;;;;;;13.17;11.97;;;14.10;99.90;;;;;;5126131;27;20537;-41
2021/09/14 05:55:08;;;;;;;11.93;10.83;;;14.10;99.90;;;;;;5124819;27;20544;-38
2021/09/14 05:57:34;;;;;;;13.57;12.27;;;14.20;99.90;;;;;;5124060;27;20421;-38
2021/09/14 05:59:59;;;;;;;13.90;12.33;;;14.30;99.90;;;;;;5126634;27;20517;-38
2021/09/14 06:02:25;;;;;;;13.43;11.43;;;14.40;99.90;;;;;;5128962;27;20201;-39
2021/09/14 06:04:51;;;;;;;13.43;11.27;;;14.50;99.90;;;;;;5122288;27;20282;-39
2021/09/14 06:07:16;;;;;;;12.83;11.57;;;14.70;99.90;;;;;;5122427;27;20253;-38
2021/09/14 06:09:42;;;;;;;13.47;11.80;;;14.70;99.90;;;;;;5127683;27;20186;-38
2021/09/14 06:12:08;;;;;;;15.60;14.00;;;14.90;99.90;;;;;;5128898;27;20308;-38
2021/09/14 06:14:33;;;;;;;16.13;12.53;;;15.00;99.90;;;;;;5122273;27;20260;-38
2021/09/14 06:16:59;;;;;;;12.50;11.40;;;15.10;99.90;;;;;;5107862;28;20291;-38
2021/09/14 06:19:24;;;;;;;12.33;11.07;;;15.20;99.90;;;;;;5106539;28;20184;-38
2021/09/14 06:21:50;;;;;;;13.00;11.03;;;15.20;99.90;;;;;;5123719;27;20201;-38
2021/09/14 06:24:16;;;;;;;13.47;12.07;;;15.30;99.90;;;;;;5128107;27;20278;-39
2021/09/14 06:26:41;;;;;;;13.60;12.30;;;15.40;99.90;;;;;;5128219;27;20260;-38
2021/09/14 06:29:07;;;;;;;13.73;11.40;;;15.50;99.90;;;;;;5127091;27;20241;-38
2021/09/14 06:31:33;;;;;;;12.43;11.10;;;15.60;99.90;;;;;;5128661;27;20191;-40
2021/09/14 06:33:58;;;;;;;12.30;11.20;;;15.70;99.90;;;;;;5127957;27;20656;-39
2021/09/14 06:36:24;;;;;;;12.10;10.03;;;15.70;99.90;;;;;;5117912;27;20187;-39
2021/09/14 06:38:50;;;;;;;14.57;10.57;;;15.80;99.90;;;;;;5127194;27;20562;-39
2021/09/14 06:41:15;;;;;;;11.37;10.27;;;15.90;99.90;;;;;;5126973;27;20241;-38
2021/09/14 06:43:41;;;;;;;12.23;10.90;;;15.90;99.90;;;;;;5125021;27;20206;-38
2021/09/14 06:46:07;;;;;;;11.37;10.37;;;16.00;99.90;;;;;;5097444;28;20227;-39
2021/09/14 06:48:32;;;;;;;11.00;10.00;;;16.10;99.90;;;;;;5122445;27;20179;-39
2021/09/14 06:50:58;;;;;;;11.20;10.10;;;16.10;99.90;;;;;;5109316;27;20240;-39
2021/09/14 06:53:26;;;;;;;11.40;10.37;;;16.10;99.90;;;;;;5122941;27;20234;-38
2021/09/14 06:55:52;;;;;;;12.10;11.00;;;16.20;99.90;;;;;;5126464;27;20242;-39
2021/09/14 06:58:17;;;;;;;11.17;10.07;;;16.20;99.90;;;;;;5127179;27;20946;-38
2021/09/14 07:00:43;;;;;;;10.30;9.40;;;16.30;99.90;;;;;;5126661;27;20293;-40
2021/09/14 07:03:08;;;;;;;11.27;10.27;;;16.40;99.90;;;;;;5126251;27;20211;-38
2021/09/14 07:05:34;;;;;;;11.17;9.23;;;16.50;99.90;;;;;;5113704;27;20195;-38
2021/09/14 07:08:00;;;;;;;11.23;10.13;;;16.50;99.90;;;;;;5123471;27;20195;-38
2021/09/14 07:10:26;;;;;;;10.87;9.77;;;16.60;99.90;;;;;;5121369;27;20245;-39
2021/09/14 07:12:51;;;;;;;11.57;10.40;;;16.70;99.90;;;;;;5126558;27;20236;-40
2021/09/14 07:15:17;;;;;;;11.60;9.77;;;16.80;99.90;;;;;;5115298;27;20572;-40
2021/09/14 07:17:43;;;;;;;11.70;9.63;;;16.90;99.90;;;;;;5106318;28;20196;-39
2021/09/14 07:20:09;;;;;;;10.50;9.47;;;17.00;99.90;;;;;;5088956;28;20254;-38
2021/09/14 07:22:35;;;;;;;9.10;8.27;;;17.00;99.90;;;;;;5118277;27;20425;-40
2021/09/14 07:25:02;;;;;;;11.00;8.77;;;17.10;99.90;;;;;;5126711;27;20487;-38
2021/09/14 07:27:28;;;;;;;10.53;9.50;;;17.10;99.90;;;;;;5120783;27;20448;-39
2021/09/14 07:29:53;;;;;;;9.67;8.80;;;17.20;99.90;;;;;;5122760;27;20962;-43
2021/09/14 07:32:19;;;;;;;9.57;8.67;;;17.20;99.90;;;;;;5107993;28;20195;-39
2021/09/14 07:34:45;;;;;;;10.87;8.50;;;17.30;99.90;;;;;;5124234;27;20210;-40
2021/09/14 07:37:10;;;;;;;10.37;8.90;;;17.30;99.90;;;;;;5123161;27;20235;-39
2021/09/14 07:39:36;;;;;;;10.37;9.37;;;17.40;99.90;;;;;;5125839;27;20183;-41
2021/09/14 07:42:03;;;;;;;10.70;9.30;;;17.40;99.90;;;;;;5107590;27;20195;-39
2021/09/14 07:44:28;;;;;;;9.87;9.00;;;17.40;99.90;;;;;;5118969;27;20191;-42
2021/09/14 07:46:55;;;;;;;10.80;9.70;;;17.50;99.90;;;;;;5125912;27;20937;-40
2021/09/14 07:49:20;;;;;;;9.80;8.90;;;17.60;99.90;;;;;;5126000;27;20247;-39
2021/09/14 07:51:46;;;;;;;11.30;9.43;;;17.70;99.90;;;;;;5112610;27;20525;-41
2021/09/14 07:54:12;;;;;;;10.50;9.43;;;17.70;99.90;;;;;;5124515;27;20607;-39
2021/09/14 07:56:37;;;;;;;10.43;9.40;;;17.80;99.90;;;;;;5126617;27;20193;-39
2021/09/14 07:59:03;;;;;;;10.27;9.37;;;17.90;99.90;;;;;;5123196;28;20191;-39
2021/09/14 08:01:29;;;;;;;10.30;9.40;;;17.90;99.90;;;;;;5126498;28;20319;-39
2021/09/14 08:03:54;;;;;;;9.73;8.73;;;18.00;99.90;;;;;;5126554;28;20191;-39
2021/09/14 08:06:20;;;;;;;9.67;8.77;;;18.10;99.90;;;;;;5116477;28;20210;-40
2021/09/14 08:08:46;;;;;;;10.10;9.20;;;18.10;99.90;;;;;;5127534;27;20277;-39
2021/09/14 08:11:12;;;;;;;10.83;9.73;;;18.10;99.90;;;;;;5111449;27;20194;-39
2021/09/14 08:13:38;;;;;;;11.67;9.30;;;18.20;99.90;;;;;;5120964;27;20203;-40
2021/09/14 08:16:04;;;;;;;9.83;8.83;;;18.20;99.90;;;;;;5130809;27;20471;-39
2021/09/14 08:18:30;;;;;;;11.90;10.70;;;18.20;99.90;;;;;;5131189;27;20629;-38
2021/09/14 08:20:56;;;;;;;10.30;9.40;;;18.20;99.90;;;;;;5121667;27;20522;-43
2021/09/14 08:23:22;;;;;;;12.90;9.77;;;18.20;99.90;;;;;;5124946;27;20512;-39
2021/09/14 08:25:48;;;;;;;11.73;10.53;;;18.30;99.90;;;;;;5127331;27;20197;-38
2021/09/14 08:28:14;;;;;;;13.33;10.70;;;18.40;99.90;;;;;;5130756;27;20183;-40
2021/09/14 08:30:39;;;;;;;14.60;10.77;;;18.40;99.90;;;;;;5111313;27;20218;-44
2021/09/14 08:33:05;;;;;;;11.83;9.33;;;18.50;99.90;;;;;;5130333;27;20740;-40
2021/09/14 08:35:31;;;;;;;12.00;10.33;;;18.50;99.90;;;;;;5124180;27;20191;-40
2021/09/14 08:37:58;;;;;;;13.90;9.93;;;18.50;99.90;;;;;;5124548;27;20409;-39
2021/09/14 08:40:24;;;;;;;10.40;9.40;;;18.60;99.90;;;;;;5129447;27;20424;-39
2021/09/14 08:42:50;;;;;;;11.17;9.03;;;18.60;99.90;;;;;;5130233;27;20431;-42
2021/09/14 08:45:16;;;;;;;10.77;8.30;;;18.70;99.90;;;;;;5130286;27;20449;-41
2021/09/14 08:47:42;;;;;;;9.10;8.20;;;18.80;99.90;;;;;;5130015;27;20412;-42
2021/09/14 08:50:09;;;;;;;13.17;9.97;;;18.80;99.90;;;;;;5127624;27;20183;-43
2021/09/14 08:52:35;;;;;;;11.67;10.47;;;18.90;99.90;;;;;;5124685;27;20227;-43
2021/09/14 08:55:03;;;;;;;10.47;9.47;;;19.00;99.90;;;;;;5128384;27;20551;-39
2021/09/14 08:57:29;;;;;;;12.23;11.13;;;19.10;99.90;;;;;;5130152;27;20183;-43
2021/09/14 08:59:56;;;;;;;12.07;10.87;;;19.20;99.90;;;;;;5129294;27;20462;-40
2021/09/14 09:02:22;;;;;;;10.00;9.10;;;19.30;99.90;;;;;;5129945;27;20187;-42
2021/09/14 09:05:00;;;;;;;8.93;8.13;;;19.40;99.90;;;;;;5129865;27;20782;-43
2021/09/14 09:07:28;;;;;;;9.83;8.93;;;19.40;99.90;;;;;;5120297;27;20207;-40
2021/09/14 09:09:53;;;;;;;10.03;9.03;;;19.50;99.90;;;;;;5125628;27;21108;-41
2021/09/14 09:12:20;;;;;;;9.43;8.53;;;19.70;99.90;;;;;;5111130;27;20420;-40
2021/09/14 09:14:50;;;;;;;9.57;8.63;;;19.80;99.90;;;;;;5122000;27;20242;-39
2021/09/14 09:17:18;;;;;;;9.60;8.70;;;19.90;99.90;;;;;;5109073;28;20424;-40
2021/09/14 09:19:54;;;;;;;9.00;7.90;;;20.10;99.90;;;;;;5107524;28;20478;-39
2021/09/14 09:22:21;;;;;;;8.63;7.90;;;20.20;99.90;;;;;;5098008;27;20999;-40
2021/09/14 09:24:49;;;;;;;8.70;7.90;;;20.30;99.90;;;;;;5103899;27;20490;-44
2021/09/14 09:27:18;;;;;;;8.33;7.53;;;20.40;99.90;;;;;;5111117;27;20432;-40
2021/09/14 09:29:44;;;;;;;8.00;7.20;;;20.50;99.90;;;;;;5128359;27;20425;-40
2021/09/14 09:32:10;;;;;;;8.70;7.90;;;20.60;99.90;;;;;;5128882;27;20424;-45
2021/09/14 09:34:36;;;;;;;8.47;7.77;;;20.70;99.90;;;;;;5129057;27;20207;-40
2021/09/14 09:37:06;;;;;;;8.30;7.50;;;20.90;99.90;;;;;;5118267;27;20206;-39
2021/09/14 09:39:47;;;;;;;8.70;7.90;;;20.90;99.90;;;;;;5128498;27;20450;-40
2021/09/14 09:42:14;;;;;;;11.03;6.90;;;21.00;99.90;;;;;;5129201;27;20756;-41
2021/09/14 09:44:51;;;;;;;7.73;6.90;;;21.10;99.90;;;;;;5128821;27;20443;-41
2021/09/14 09:47:18;;;;;;;8.20;7.40;;;21.30;99.90;;;;;;5117056;27;20828;-40
2021/09/14 09:49:47;;;;;;;9.47;7.93;;;21.40;99.90;;;;;;5128257;27;20473;-41
2021/09/14 09:52:13;;;;;;;9.80;7.07;;;21.50;99.90;;;;;;5104359;27;20597;-39
2021/09/14 09:54:40;;;;;;;9.73;6.90;;;21.60;99.90;;;;;;5126809;27;20570;-41
2021/09/14 09:57:08;;;;;;;9.60;7.40;;;21.70;99.90;;;;;;5128965;27;20437;-41
2021/09/14 09:59:34;;;;;;;6.97;6.17;;;21.80;99.90;;;;;;5127972;27;20424;-39
2021/09/14 10:02:21;;;;;;;7.57;6.87;;;21.90;99.90;;;;;;5110549;27;20416;-40
2021/09/14 10:04:54;;;;;;;7.40;6.70;;;21.90;99.90;;;;;;5128690;27;20620;-41
2021/09/14 10:07:26;;;;;;;7.67;6.77;;;22.10;99.90;;;;;;5115196;27;20575;-41
2021/09/14 10:09:56;;;;;;;7.10;6.47;;;22.20;99.90;;;;;;5126893;27;20920;-39
2021/09/14 10:12:28;;;;;;;6.80;6.10;;;22.20;99.90;;;;;;5128533;27;20454;-39
2021/09/14 10:15:01;;;;;;;7.17;6.57;;;22.20;99.90;;;;;;5114664;27;20543;-41
2021/09/14 10:17:28;;;;;;;7.43;6.73;;;22.30;99.90;;;;;;5128409;27;20408;-40
2021/09/14 10:19:54;;;;;;;7.33;6.23;;;22.30;99.90;;;;;;5109525;27;20448;-42
2021/09/14 10:22:26;;;;;;;6.10;5.40;;;22.20;99.90;;;;;;5116611;27;20855;-42
2021/09/14 10:25:01;;;;;;;6.97;6.40;;;22.30;99.90;;;;;;5128049;27;20753;-42
2021/09/14 10:27:41;;;;;;;6.20;5.60;;;22.40;99.90;;;;;;5126110;27;20416;-40
2021/09/14 10:30:09;;;;;;;9.10;7.33;;;22.40;99.90;;;;;;5127138;27;20505;-41
2021/09/14 10:32:43;;;;;;;7.03;6.33;;;22.50;99.90;;;;;;5113870;27;20432;-42
2021/09/14 10:35:10;;;;;;;8.33;6.73;;;22.60;99.90;;;;;;5127988;27;20431;-39
2021/09/14 10:37:36;;;;;;;6.33;5.70;;;22.60;99.90;;;;;;5114609;27;20426;-42
2021/09/14 10:40:07;;;;;;;6.83;6.10;;;22.50;99.90;;;;;;5125526;27;20500;-39
2021/09/14 10:42:37;;;;;;;6.57;5.97;;;22.60;99.90;;;;;;5116579;27;20416;-38
2021/09/14 10:45:15;;;;;;;6.73;6.03;;;22.70;99.90;;;;;;5128182;27;20902;-39
2021/09/14 10:47:50;;;;;;;6.27;5.63;;;22.70;99.90;;;;;;5109310;27;21041;-39
2021/09/14 10:50:30;;;;;;;9.17;6.47;;;22.80;99.90;;;;;;5127074;27;20459;-41
2021/09/14 10:52:58;;;;;;;6.43;5.83;;;22.90;99.90;;;;;;5118042;27;20432;-43
2021/09/14 10:55:24;;;;;;;6.03;5.53;;;23.00;99.90;;;;;;5125827;27;20409;-39
2021/09/14 10:57:56;;;;;;;6.13;5.40;;;23.00;99.90;;;;;;5127588;27;20427;-41
2021/09/14 11:00:27;;;;;;;6.53;5.93;;;23.10;99.90;;;;;;5127228;27;20800;-40
2021/09/14 11:02:57;;;;;;;7.00;5.47;;;23.10;99.90;;;;;;5127527;27;20420;-42
2021/09/14 11:05:29;;;;;;;5.80;5.40;;;23.10;99.90;;;;;;5127540;27;20949;-39
2021/09/14 11:08:02;;;;;;;6.60;5.80;;;23.10;99.90;;;;;;5118647;27;20436;-39
2021/09/14 11:10:34;;;;;;;7.43;5.60;;;23.10;99.90;;;;;;5126634;27;20421;-39
2021/09/14 11:13:00;;;;;;;6.20;5.60;;;23.00;99.90;;;;;;5127181;27;20421;-39
2021/09/14 11:15:26;;;;;;;7.63;6.57;;;23.00;99.90;;;;;;5121856;27;20935;-40
2021/09/14 11:17:52;;;;;;;5.60;5.10;;;23.10;99.90;;;;;;5127139;27;20512;-38
2021/09/14 11:20:20;;;;;;;6.43;5.83;;;23.20;99.90;;;;;;5126578;27;20466;-41
2021/09/14 11:22:49;;;;;;;7.10;6.40;;;23.30;99.90;;;;;;5115380;27;20275;-40
2021/09/14 11:25:19;;;;;;;9.27;6.57;;;23.30;99.90;;;;;;5127193;27;20424;-45
2021/09/14 11:28:07;;;;;;;6.83;6.17;;;23.30;99.90;;;;;;5126856;27;20561;-40
2021/09/14 11:30:36;;;;;;;6.87;6.27;;;23.40;99.90;;;;;;5126205;27;20424;-41
2021/09/14 11:33:03;;;;;;;6.57;6.07;;;23.50;99.90;;;;;;5126557;27;20508;-41
2021/09/14 11:35:34;;;;;;;6.80;6.20;;;23.50;99.90;;;;;;5127284;27;20428;-40
2021/09/14 11:38:05;;;;;;;6.00;5.50;;;23.60;99.90;;;;;;5116367;27;20458;-40
2021/09/14 11:40:32;;;;;;;7.30;6.53;;;23.60;99.90;;;;;;5120775;27;20854;-41
2021/09/14 11:43:00;;;;;;;6.93;6.33;;;23.60;99.90;;;;;;5126739;27;20409;-41
2021/09/14 11:45:28;;;;;;;7.30;6.60;;;23.60;99.90;;;;;;5126809;27;20466;-42
2021/09/14 11:47:55;;;;;;;6.50;5.57;;;23.70;99.90;;;;;;5126815;27;20682;-39
2021/09/14 11:50:26;;;;;;;7.00;6.40;;;23.80;99.90;;;;;;5126539;27;20756;-40
2021/09/14 11:53:08;;;;;;;7.53;6.83;;;23.80;99.90;;;;;;5117229;27;20429;-38
2021/09/14 11:55:43;;;;;;;7.10;6.40;;;23.80;99.90;;;;;;5124780;27;20416;-40
2021/09/14 11:58:09;;;;;;;8.07;7.37;;;23.70;99.90;;;;;;5124444;28;20644;-40
2021/09/14 12:00:36;;;;;;;6.63;6.03;;;23.70;99.90;;;;;;5125815;28;20459;-40
2021/09/14 12:03:02;;;;;;;6.60;6.10;;;23.60;99.90;;;;;;5126660;28;20452;-40
2021/09/14 12:05:28;;;;;;;6.70;6.20;;;23.60;99.90;;;;;;5126764;28;20420;-40
2021/09/14 12:07:58;;;;;;;6.80;6.10;;;23.60;99.90;;;;;;5118411;28;20242;-42
2021/09/14 12:10:25;;;;;;;6.30;5.80;;;23.70;99.90;;;;;;5126028;28;20163;-41
2021/09/14 12:12:55;;;;;;;7.40;6.43;;;23.70;99.90;;;;;;5126141;28;20424;-39
2021/09/14 12:15:28;;;;;;;7.37;6.60;;;23.80;99.90;;;;;;5116923;28;20416;-42
2021/09/14 12:18:03;;;;;;;7.07;6.37;;;23.80;99.90;;;;;;5113057;28;20824;-39
2021/09/14 12:20:29;;;;;;;7.40;6.80;;;23.90;99.90;;;;;;5125758;28;20786;-41
2021/09/14 12:22:55;;;;;;;8.20;6.17;;;24.00;99.90;;;;;;5115573;28;20437;-44
2021/09/14 12:25:20;;;;;;;6.57;6.00;;;24.10;99.90;;;;;;5120949;28;20271;-42
2021/09/14 12:27:46;;;;;;;6.10;5.13;;;24.20;99.90;;;;;;5126595;28;20269;-41
2021/09/14 12:30:12;;;;;;;6.40;5.90;;;24.30;99.90;;;;;;5125693;28;20360;-39
2021/09/14 12:32:37;;;;;;;5.60;5.10;;;24.40;99.90;;;;;;5126415;28;20190;-39
2021/09/14 12:35:04;;;;;;;5.97;5.47;;;24.40;99.90;;;;;;5126228;28;20219;-39
2021/09/14 12:37:30;;;;;;;6.30;5.80;;;24.50;99.90;;;;;;5118993;28;20535;-39
2021/09/14 12:39:56;;;;;;;7.67;5.37;;;24.50;99.90;;;;;;5102181;28;20428;-39
2021/09/14 12:42:21;;;;;;;5.63;5.13;;;24.60;99.90;;;;;;5126199;28;20274;-43
2021/09/14 12:44:47;;;;;;;7.13;5.43;;;24.60;99.90;;;;;;5126352;28;20731;-41
2021/09/14 12:47:12;;;;;;;5.93;5.43;;;24.40;99.90;;;;;;5126095;28;20191;-40
2021/09/14 12:49:38;;;;;;;5.80;5.30;;;24.50;99.90;;;;;;5125607;28;20201;-39
2021/09/14 12:52:04;;;;;;;5.80;5.30;;;24.50;99.90;;;;;;5122659;28;20322;-42
2021/09/14 12:54:30;;;;;;;5.17;4.77;;;24.50;99.90;;;;;;5119790;27;20207;-42
2021/09/14 12:56:56;;;;;;;11.03;4.60;;;24.50;99.90;;;;;;5122699;27;20183;-41
2021/09/14 12:59:22;;;;;;;4.53;4.23;;;24.40;99.90;;;;;;5108918;28;20187;-41
2021/09/14 13:01:48;;;;;;;4.70;4.40;;;24.40;99.90;;;;;;5122188;27;20638;-41
2021/09/14 13:04:13;;;;;;;4.77;4.37;;;24.40;99.90;;;;;;5130239;27;20425;-41
2021/09/14 13:06:39;;;;;;;4.60;4.20;;;24.40;99.90;;;;;;5129540;27;20197;-42
2021/09/14 13:09:05;;;;;;;4.30;4.00;;;24.40;99.90;;;;;;5117120;27;20576;-42
2021/09/14 13:11:32;;;;;;;5.00;4.60;;;24.40;99.90;;;;;;5122197;27;20305;-40
2021/09/14 13:16:41;;;;;;;4.67;4.30;;;24.40;99.90;;;;;;5120328;27;20183;-42
2021/09/14 13:19:07;;;;;;;4.90;4.50;;;24.50;99.90;;;;;;5129147;27;20447;-43
2021/09/14 13:21:33;;;;;;;4.83;4.43;;;24.40;99.90;;;;;;5129681;27;20214;-39
2021/09/14 13:23:58;;;;;;;4.57;4.27;;;24.50;99.90;;;;;;5118358;27;20895;-42
2021/09/14 13:26:24;;;;;;;5.00;4.60;;;24.40;99.90;;;;;;5129717;27;20669;-45
2021/09/14 13:28:51;;;;;;;5.60;4.50;;;24.40;99.90;;;;;;5129420;27;20186;-39
2021/09/14 13:31:17;;;;;;;5.37;4.87;;;24.30;99.90;;;;;;5129254;27;20187;-42
2021/09/14 13:33:44;;;;;;;7.10;5.00;;;24.30;99.90;;;;;;5093795;27;20525;-39
2021/09/14 13:36:10;;;;;;;6.53;4.50;;;24.30;99.90;;;;;;5129207;27;20443;-40
2021/09/14 13:38:36;;;;;;;5.13;4.73;;;24.20;99.90;;;;;;5122823;27;20448;-40
2021/09/14 13:41:06;;;;;;;5.37;4.97;;;24.10;99.90;;;;;;5128407;27;20824;-43